createdAt,value
2023-02-28T00:00:37.029Z,31
2023-02-28T00:03:37.826Z,29.2
2023-02-28T00:06:25.440Z,26.6
2023-02-28T00:09:13.479Z,28.3
2023-02-28T00:12:00.921Z,24.9
2023-02-28T00:14:55.663Z,23.3
2023-02-28T00:17:43.468Z,27.8
2023-02-28T00:20:31.292Z,25.3
2023-02-28T00:23:18.819Z,27.8
2023-02-28T00:26:06.175Z,26.9
2023-02-28T00:28:53.687Z,24.1
2023-02-28T00:31:40.990Z,27.4
2023-02-28T00:34:28.285Z,32
2023-02-28T00:37:15.622Z,27.8
2023-02-28T00:40:03.263Z,28.9
2023-02-28T00:42:54.526Z,24
2023-02-28T00:45:42.038Z,23.4
2023-02-28T00:48:29.785Z,25.3
2023-02-28T00:51:17.305Z,24
2023-02-28T00:54:04.607Z,23.7
2023-02-28T00:56:51.924Z,19.5
2023-02-28T00:59:39.239Z,21.6
2023-02-28T01:02:26.756Z,20.3
2023-02-28T01:05:14.266Z,22.5
2023-02-28T01:08:01.783Z,23.2
2023-02-28T01:10:49.652Z,23.7
2023-02-28T01:13:37.069Z,30.2
2023-02-28T01:16:24.668Z,22.3
2023-02-28T01:19:13.131Z,22.8
2023-02-28T01:22:00.408Z,27.7
2023-02-28T01:24:49.092Z,24.9
2023-02-28T01:27:36.378Z,27.9
2023-02-28T01:30:25.018Z,28
2023-02-28T01:33:12.302Z,29.1
2023-02-28T01:35:59.566Z,26.7
2023-02-28T01:38:49.849Z,25
2023-02-28T01:41:37.592Z,29.7
2023-02-28T01:44:25.427Z,31.4
2023-02-28T01:47:46.945Z,28.3
2023-02-28T01:50:36.676Z,29.6
2023-02-28T01:53:28.514Z,31.5
2023-02-28T01:56:20.632Z,26.7
2023-02-28T01:59:13.204Z,25.2
2023-02-28T02:02:07.538Z,27.5
2023-02-28T02:04:55.860Z,27.2
2023-02-28T02:07:48.497Z,27
2023-02-28T02:10:40.318Z,24
2023-02-28T02:13:30.643Z,30.6
2023-02-28T02:16:29.147Z,24.3
2023-02-28T02:19:31.703Z,29.9
2023-02-28T02:22:50.755Z,28.5
2023-02-28T02:26:18.370Z,27
2023-02-28T02:29:27.889Z,27.5
2023-02-28T02:32:53.770Z,29.6
2023-02-28T02:35:57.301Z,25.3
2023-02-28T02:38:53.091Z,29.8
2023-02-28T02:41:48.133Z,33.4
2023-02-28T02:44:38.298Z,33.7
2023-02-28T02:47:30.619Z,32.5
2023-02-28T02:50:19.491Z,35.1
2023-02-28T02:53:12.352Z,27.4
2023-02-28T02:56:03.212Z,30.1
2023-02-28T02:58:53.415Z,35
2023-02-28T03:01:47.369Z,33.7
2023-02-28T03:04:39.271Z,29.5
2023-02-28T03:07:31.824Z,36.4
2023-02-28T03:10:19.329Z,32.2
2023-02-28T03:13:18.517Z,28.6
2023-02-28T03:16:26.636Z,37.5
2023-02-28T03:19:21.707Z,39.5
2023-02-28T03:22:26.205Z,35.5
2023-02-28T03:25:35.003Z,39.3
2023-02-28T03:28:28.574Z,34.9
2023-02-28T03:31:22.819Z,34.1
2023-02-28T03:34:16.110Z,32.9
2023-02-28T03:37:10.258Z,37.5
2023-02-28T03:40:04.293Z,36
2023-02-28T03:42:58.687Z,32.2
2023-02-28T03:45:49.519Z,41.9
2023-02-28T03:48:39.717Z,34.2
2023-02-28T03:51:31.822Z,30.5
2023-02-28T03:54:20.059Z,35.9
2023-02-28T03:57:13.085Z,40.1
2023-02-28T04:00:10.757Z,34.3
2023-02-28T04:03:03.584Z,32.5
2023-02-28T04:05:51.775Z,31.6
2023-02-28T04:08:43.025Z,30.5
2023-02-28T04:11:36.972Z,29.5
2023-02-28T04:14:26.618Z,29.6
2023-02-28T04:17:13.950Z,28.7
2023-02-28T04:20:01.601Z,32.3
2023-02-28T04:22:54.975Z,37
2023-02-28T04:25:42.413Z,40
2023-02-28T04:28:29.788Z,29.7
2023-02-28T04:31:17.265Z,37.1
2023-02-28T04:34:04.526Z,32.6
2023-02-28T04:37:02.696Z,27.1
2023-02-28T04:39:59.441Z,29.3
2023-02-28T04:42:46.817Z,30
2023-02-28T04:45:34.119Z,29.3
2023-02-28T04:48:22.430Z,33.9
2023-02-28T04:51:10.951Z,36.4
2023-02-28T04:54:01.285Z,28.3
2023-02-28T04:56:48.636Z,27.2
2023-02-28T04:59:35.920Z,32.4
2023-02-28T05:02:23.300Z,26.2
2023-02-28T05:05:10.996Z,27.6
2023-02-28T05:08:03.620Z,27.9
2023-02-28T05:10:51.133Z,32.1
2023-02-28T05:13:38.630Z,28.1
2023-02-28T05:16:26.063Z,31.3
2023-02-28T05:19:13.680Z,24.1
2023-02-28T05:22:01.565Z,31.7
2023-02-28T05:24:48.989Z,32
2023-02-28T05:27:36.476Z,38.4
2023-02-28T05:30:24.069Z,29.7
2023-02-28T05:33:17.257Z,32
2023-02-28T05:36:04.625Z,38.4
2023-02-28T05:38:53.007Z,39.3
2023-02-28T05:41:40.454Z,40.8
2023-02-28T05:44:28.752Z,36.3
2023-02-28T05:47:16.463Z,37.2
2023-02-28T05:50:04.282Z,37.7
2023-02-28T05:52:55.346Z,32.3
2023-02-28T05:55:42.913Z,34.3
2023-02-28T05:58:30.227Z,33.1
2023-02-28T06:01:17.728Z,40.3
2023-02-28T06:04:19.209Z,36.5
2023-02-28T06:07:10.067Z,28.2
2023-02-28T06:09:58.930Z,36.4
2023-02-28T06:12:46.353Z,32.1
2023-02-28T06:15:33.738Z,38.4
2023-02-28T06:18:21.500Z,34.7
2023-02-28T06:21:09.062Z,33.1
2023-02-28T06:23:59.286Z,35.7
2023-02-28T06:26:47.219Z,34.4
2023-02-28T06:29:34.784Z,33.6
2023-02-28T06:32:25.444Z,31
2023-02-28T06:35:13.228Z,37.3
2023-02-28T06:38:00.626Z,30.5
2023-02-28T06:40:48.704Z,36.7
2023-02-28T06:43:39.968Z,33.4
2023-02-28T06:46:28.443Z,37.3
2023-02-28T06:49:15.714Z,38.3
2023-02-28T06:52:03.474Z,40.6
2023-02-28T06:54:51.321Z,44.3
2023-02-28T06:57:45.418Z,38.9
2023-02-28T07:00:32.777Z,41.5
2023-02-28T07:03:20.011Z,43
2023-02-28T07:06:07.413Z,38.8
2023-02-28T07:08:55.621Z,42.8
2023-02-28T07:11:43.220Z,46.5
2023-02-28T07:14:30.628Z,51.2
2023-02-28T07:17:18.008Z,37.5
2023-02-28T07:20:05.464Z,53.5
2023-02-28T07:22:54.591Z,45.6
2023-02-28T07:25:42.259Z,41
2023-02-28T07:28:31.140Z,33.4
2023-02-28T07:31:18.594Z,41.7
2023-02-28T07:34:06.135Z,39.6
2023-02-28T07:36:53.506Z,45.5
2023-02-28T07:39:41.367Z,33.1
2023-02-28T07:42:28.651Z,43
2023-02-28T07:45:16.028Z,36
2023-02-28T07:48:05.005Z,39.7
2023-02-28T07:50:52.322Z,36.6
2023-02-28T07:53:41.541Z,29.9
2023-02-28T07:56:29.387Z,31.3
2023-02-28T07:59:17.443Z,42.9
2023-02-28T08:02:04.889Z,26.9
2023-02-28T08:04:52.356Z,30.3
2023-02-28T08:07:39.781Z,39.1
2023-02-28T08:10:27.191Z,35.4
2023-02-28T08:13:14.487Z,34.6
2023-02-28T08:16:01.779Z,27.5
2023-02-28T08:18:49.367Z,23
2023-02-28T08:21:37.893Z,34.3
2023-02-28T08:24:25.476Z,27
2023-02-28T08:27:13.321Z,28.3
2023-02-28T08:30:00.684Z,20.8
2023-02-28T08:32:49.948Z,22.7
2023-02-28T08:35:37.498Z,22.1
2023-02-28T08:38:25.043Z,24
2023-02-28T08:41:12.763Z,19.1
2023-02-28T08:44:00.158Z,20.1
2023-02-28T08:46:47.696Z,18.1
2023-02-28T08:49:35.095Z,24
2023-02-28T08:52:23.211Z,22.6
2023-02-28T08:55:10.990Z,21.9
2023-02-28T08:57:59.087Z,18.2
2023-02-28T09:00:47.182Z,16.8
2023-02-28T09:03:34.672Z,19.9
2023-02-28T09:06:22.170Z,16.3
2023-02-28T09:09:12.162Z,17.8
2023-02-28T09:11:59.634Z,19.5
2023-02-28T09:14:47.704Z,15.5
2023-02-28T09:17:36.109Z,15.4
2023-02-28T09:20:23.638Z,18.4
2023-02-28T09:23:11.428Z,19.4
2023-02-28T09:25:59.994Z,16.9
2023-02-28T09:28:47.897Z,16.8
2023-02-28T09:31:35.968Z,13.7
2023-02-28T09:34:23.442Z,18.3
2023-02-28T09:37:11.106Z,18
2023-02-28T09:39:59.367Z,17.5
2023-02-28T09:42:46.706Z,19.5
2023-02-28T09:45:36.948Z,19.5
2023-02-28T09:48:27.479Z,16.6
2023-02-28T09:51:21.640Z,12.7
2023-02-28T09:54:20.894Z,14.1
2023-02-28T09:57:10.248Z,14.3
2023-02-28T10:00:05.644Z,14.4
2023-02-28T10:03:03.806Z,12.5
2023-02-28T10:06:08.862Z,32.8
2023-02-28T10:09:02.023Z,26.9
2023-02-28T10:11:56.100Z,23.9
2023-02-28T10:14:50.684Z,12.7
2023-02-28T10:17:54.878Z,13
2023-02-28T10:20:46.876Z,12
2023-02-28T10:23:36.314Z,17.3
2023-02-28T10:26:23.970Z,18.1
2023-02-28T10:29:14.907Z,15.5
2023-02-28T10:32:02.393Z,13.8
2023-02-28T10:34:50.397Z,16.6
2023-02-28T10:37:41.721Z,14.4
2023-02-28T10:40:31.622Z,13.3
2023-02-28T10:43:21.295Z,16.4
2023-02-28T10:46:10.699Z,13.4
2023-02-28T10:49:11.243Z,12.5
2023-02-28T10:52:03.702Z,12.5
2023-02-28T10:54:55.783Z,12.6
2023-02-28T10:58:01.872Z,15
2023-02-28T11:01:00.578Z,12
2023-02-28T11:03:48.146Z,16.2
2023-02-28T11:06:39.785Z,14
2023-02-28T11:09:27.106Z,15.4
2023-02-28T11:12:19.181Z,15.3
2023-02-28T11:15:09.840Z,13.8
2023-02-28T11:18:10.180Z,15.5
2023-02-28T11:21:09.810Z,13.2
2023-02-28T11:24:06.018Z,14.2
2023-02-28T11:27:08.816Z,12.9
2023-02-28T11:30:12.216Z,14
2023-02-28T11:33:19.746Z,12.6
2023-02-28T11:36:13.353Z,15.3
2023-02-28T11:39:05.017Z,14.3
2023-02-28T11:41:58.489Z,16.4
2023-02-28T11:44:57.885Z,14.9
2023-02-28T11:47:58.336Z,16.6
2023-02-28T11:50:54.986Z,15.1
2023-02-28T11:53:55.038Z,16.4
2023-02-28T11:56:57.784Z,13.2
2023-02-28T12:00:08.009Z,11.3
2023-02-28T12:03:13.987Z,12.2
2023-02-28T12:06:14.280Z,13.8
2023-02-28T12:09:09.658Z,13.4
2023-02-28T12:12:15.356Z,15.5
2023-02-28T12:15:16.080Z,12.6
2023-02-28T12:18:14.567Z,10.8
2023-02-28T12:21:19.332Z,10.9
2023-02-28T12:24:17.797Z,13.6
2023-02-28T12:27:25.963Z,13.1
2023-02-28T12:30:19.042Z,17.5
2023-02-28T12:33:11.929Z,12.3
2023-02-28T12:36:04.525Z,14
2023-02-28T12:38:57.865Z,12.2
2023-02-28T12:41:50.514Z,11.5
2023-02-28T12:44:42.287Z,9.9
2023-02-28T12:47:35.059Z,12.1
2023-02-28T12:50:26.622Z,12.6
2023-02-28T12:53:17.302Z,11.1
2023-02-28T12:56:14.396Z,11.8
2023-02-28T12:59:08.443Z,9.2
2023-02-28T13:02:08.471Z,10.6
2023-02-28T13:05:16.619Z,12.4
2023-02-28T13:08:46.313Z,19.2
2023-02-28T13:11:48.533Z,12.7
2023-02-28T13:14:37.858Z,12.3
2023-02-28T13:17:25.641Z,13.1
2023-02-28T13:20:13.107Z,13.2
2023-02-28T13:23:04.805Z,13.5
2023-02-28T13:26:25.899Z,11.6
2023-02-28T13:30:31.799Z,12.9
2023-02-28T13:33:51.754Z,11.1
2023-02-28T13:37:11.891Z,15.3
2023-02-28T13:40:35.413Z,10.4
2023-02-28T13:43:35.734Z,12.2
2023-02-28T13:46:47.081Z,12.9
2023-02-28T13:50:07.982Z,12.2
2023-02-28T13:53:13.093Z,12.1
2023-02-28T13:56:34.679Z,10.8
2023-02-28T13:59:31.305Z,13.1
2023-02-28T14:02:28.771Z,12.2
2023-02-28T14:05:34.312Z,11.5
2023-02-28T14:08:23.412Z,9.7
2023-02-28T14:11:11.282Z,12.6
2023-02-28T14:14:13.438Z,12.4
2023-02-28T14:17:41.703Z,13.1
2023-02-28T14:20:30.377Z,13.7
2023-02-28T14:23:19.600Z,13.4
2023-02-28T14:26:26.604Z,15.9
2023-02-28T14:29:29.565Z,12.5
2023-02-28T14:32:38.736Z,10.7
2023-02-28T14:35:33.794Z,13.4
2023-02-28T14:38:36.935Z,12.8
2023-02-28T14:41:31.191Z,11.5
2023-02-28T14:44:22.371Z,12.8
2023-02-28T14:47:11.401Z,13.3
2023-02-28T14:50:01.916Z,10.3
2023-02-28T14:52:52.076Z,12.6
2023-02-28T14:55:41.884Z,12.1
2023-02-28T14:58:32.302Z,11.2
2023-02-28T15:01:20.378Z,11.8
2023-02-28T15:04:10.066Z,11.8
2023-02-28T15:07:09.313Z,11.3
2023-02-28T15:10:03.198Z,11.9
2023-02-28T15:13:00.231Z,12.9
2023-02-28T15:16:01.598Z,10.2
2023-02-28T15:18:54.390Z,11.8
2023-02-28T15:21:45.224Z,12.4
2023-02-28T15:24:35.652Z,12.6
2023-02-28T15:27:26.770Z,14
2023-02-28T15:30:17.819Z,13.8
2023-02-28T15:33:10.786Z,12.1
2023-02-28T15:36:07.076Z,13.6
2023-02-28T15:39:14.281Z,13.5
2023-02-28T15:42:07.148Z,12.1
2023-02-28T15:45:03.753Z,15.6
2023-02-28T15:47:53.618Z,16
2023-02-28T15:50:41.877Z,13.4
2023-02-28T15:53:29.841Z,13.5
2023-02-28T15:56:22.901Z,12.1
2023-02-28T15:59:12.709Z,12.9
2023-02-28T16:02:04.341Z,11
2023-02-28T16:05:03.398Z,12.8
2023-02-28T16:08:13.325Z,11.3
2023-02-28T16:11:02.150Z,14
2023-02-28T16:13:49.553Z,14
2023-02-28T16:16:38.537Z,9.9
2023-02-28T16:19:30.244Z,17.8
2023-02-28T16:22:18.280Z,13.3
2023-02-28T16:25:05.689Z,14.1
2023-02-28T16:27:54.422Z,14.9
2023-02-28T16:30:45.837Z,11.9
2023-02-28T16:33:34.833Z,14.3
2023-02-28T16:36:22.295Z,13
2023-02-28T16:39:11.119Z,12.5
2023-02-28T16:41:59.496Z,15.9
2023-02-28T16:44:46.891Z,16.7
2023-02-28T16:47:34.539Z,16.2
2023-02-28T16:50:21.984Z,15.5
2023-02-28T16:53:11.587Z,19.2
2023-02-28T16:55:59.954Z,17.4
2023-02-28T16:58:47.843Z,18.6
2023-02-28T17:01:37.247Z,11.5
2023-02-28T17:04:24.898Z,17.1
2023-02-28T17:07:13.049Z,13
2023-02-28T17:10:02.584Z,16.8
2023-02-28T17:13:13.000Z,13.8
2023-02-28T17:16:02.222Z,14.1
2023-02-28T17:18:51.240Z,26.9
2023-02-28T17:21:41.186Z,29.9
2023-02-28T17:24:31.298Z,30
2023-02-28T17:27:19.100Z,32.5
2023-02-28T17:30:06.724Z,44.2
2023-02-28T17:33:02.813Z,35.5
2023-02-28T17:35:50.766Z,41.6
2023-02-28T17:38:38.144Z,41.8
2023-02-28T17:41:25.613Z,35.1
2023-02-28T17:44:15.290Z,44.7
2023-02-28T17:47:03.235Z,42.5
2023-02-28T17:49:51.068Z,50.5
2023-02-28T17:52:38.627Z,48.4
2023-02-28T17:55:26.002Z,48.8
2023-02-28T17:58:13.757Z,60.6
2023-02-28T18:01:01.277Z,50.4
2023-02-28T18:03:48.802Z,52.2
2023-02-28T18:06:36.260Z,50.8
2023-02-28T18:09:35.365Z,48.4
2023-02-28T18:12:22.789Z,51.4
2023-02-28T18:15:10.647Z,46.3
2023-02-28T18:17:59.893Z,41.5
2023-02-28T18:20:48.575Z,57
2023-02-28T18:23:37.748Z,44.8
2023-02-28T18:26:32.612Z,49.2
2023-02-28T18:29:20.877Z,48.5
2023-02-28T18:32:11.233Z,40.1
2023-02-28T18:34:59.668Z,44.6
2023-02-28T18:37:47.141Z,48.6
2023-02-28T18:40:34.373Z,46.7
2023-02-28T18:43:22.969Z,41.7
2023-02-28T18:46:10.818Z,39.6
2023-02-28T18:49:01.443Z,42.9
2023-02-28T18:51:48.743Z,43.9
2023-02-28T18:54:36.248Z,38.2
2023-02-28T18:57:23.611Z,38
2023-02-28T19:00:11.431Z,44.4
2023-02-28T19:03:04.194Z,38.9
2023-02-28T19:05:52.202Z,45.7
2023-02-28T19:08:41.141Z,57.9
2023-02-28T19:11:28.658Z,73.4
2023-02-28T19:14:16.533Z,73.8
2023-02-28T19:17:05.710Z,68.6
2023-02-28T19:19:53.107Z,58.9
2023-02-28T19:22:40.459Z,64.6
2023-02-28T19:25:29.109Z,85.8
2023-02-28T19:28:16.804Z,68.2
2023-02-28T19:31:04.181Z,81.1
2023-02-28T19:33:59.080Z,87.9
2023-02-28T19:36:46.986Z,75.3
2023-02-28T19:39:35.421Z,82.1
2023-02-28T19:42:26.044Z,82.1
2023-02-28T19:45:17.667Z,75.9
2023-02-28T19:48:05.362Z,78.1
2023-02-28T19:50:54.486Z,83
2023-02-28T19:53:43.236Z,74.7
2023-02-28T19:56:31.171Z,90.5
2023-02-28T19:59:21.739Z,86
2023-02-28T20:02:18.404Z,84.3
2023-02-28T20:05:07.582Z,96.1
2023-02-28T20:07:56.200Z,88
2023-02-28T20:10:44.138Z,91.9
2023-02-28T20:13:31.536Z,89
2023-02-28T20:16:19.224Z,110.3
2023-02-28T20:19:06.902Z,110
2023-02-28T20:21:54.295Z,108.3
2023-02-28T20:24:41.790Z,105.6
2023-02-28T20:27:29.207Z,107.6
2023-02-28T20:30:18.385Z,113.7
2023-02-28T20:33:07.278Z,105
2023-02-28T20:35:54.944Z,101.1
2023-02-28T20:38:44.555Z,106.1
2023-02-28T20:41:32.577Z,86.8
2023-02-28T20:44:19.901Z,96.3
2023-02-28T20:47:07.264Z,91.7
2023-02-28T20:49:54.752Z,103.7
2023-02-28T20:52:42.103Z,93.6
2023-02-28T20:55:29.602Z,94.9
2023-02-28T20:58:17.070Z,99.6
2023-02-28T21:01:04.473Z,83.7
2023-02-28T21:03:57.223Z,84.4
2023-02-28T21:06:46.476Z,83
2023-02-28T21:09:36.399Z,81.2
2023-02-28T21:12:23.840Z,87.9
2023-02-28T21:15:11.201Z,88.3
2023-02-28T21:17:58.542Z,96.6
2023-02-28T21:20:46.024Z,89.6
2023-02-28T21:23:33.394Z,77.3
2023-02-28T21:26:20.773Z,84.5
2023-02-28T21:29:09.803Z,87.1
2023-02-28T21:31:59.811Z,82.1
2023-02-28T21:34:47.330Z,80.3
2023-02-28T21:37:34.827Z,93.4
2023-02-28T21:40:23.315Z,93.6
2023-02-28T21:43:11.801Z,88.5
2023-02-28T21:46:00.808Z,78.3
2023-02-28T21:48:50.095Z,89.4
2023-02-28T21:51:39.072Z,87.9
2023-02-28T21:54:32.320Z,85
2023-02-28T21:57:20.172Z,84.7
2023-02-28T22:00:07.658Z,79.9
2023-02-28T22:02:57.124Z,92.2
2023-02-28T22:05:45.172Z,89
2023-02-28T22:08:32.532Z,78.1
2023-02-28T22:11:20.075Z,94.5
2023-02-28T22:14:10.275Z,76.7
2023-02-28T22:17:01.003Z,78.1
2023-02-28T22:19:49.096Z,93.2
2023-02-28T22:22:36.493Z,91.2
2023-02-28T22:25:23.782Z,88
2023-02-28T22:28:11.617Z,90.9
2023-02-28T22:31:00.007Z,86.1
2023-02-28T22:33:58.760Z,83.7
2023-02-28T22:36:50.411Z,74.9
2023-02-28T22:39:39.144Z,70.9
2023-02-28T22:42:26.709Z,75.3
2023-02-28T22:45:17.026Z,82.2
2023-02-28T22:48:04.348Z,74.4
2023-02-28T22:50:58.656Z,92.4
2023-02-28T22:53:49.550Z,79.6
2023-02-28T22:56:38.632Z,74
2023-02-28T22:59:26.117Z,77
2023-02-28T23:02:13.785Z,84.7
2023-02-28T23:05:01.316Z,94.3
2023-02-28T23:07:48.823Z,77.6
2023-02-28T23:10:36.293Z,88.3
2023-02-28T23:13:27.292Z,89.1
2023-02-28T23:16:14.665Z,97
2023-02-28T23:19:02.079Z,70.3
2023-02-28T23:21:53.004Z,77
2023-02-28T23:24:41.626Z,89.2
2023-02-28T23:27:29.090Z,76.1
2023-02-28T23:30:16.510Z,79.6
2023-02-28T23:33:04.267Z,87.5
2023-02-28T23:35:52.507Z,77.2
2023-02-28T23:38:39.884Z,79.4
2023-02-28T23:41:31.066Z,81.1
2023-02-28T23:44:19.687Z,75.2
2023-02-28T23:47:07.679Z,79.3
2023-02-28T23:49:58.574Z,69.3
2023-02-28T23:52:45.982Z,75.9
2023-02-28T23:55:33.472Z,69.7
2023-02-28T23:58:20.748Z,81
